Time,TemperatureF,DewpointF,PressureIn,WindDirection,WindDirectionDegrees,WindSpeedMPH,WindSpeedGustMPH,Humidity,HourlyPrecipIn,Conditions,Clouds,dailyrainin,SoftwareType,DateUTC
2013-10-11 00:11:00,19.3,18.0,29.89,NE,46,0.0,0.0,93,0.00,,,0.00,weatherlink.com 1.10,2013-10-11 06:11:00,
2013-10-11 00:26:00,19.3,18.0,29.90,NW,319,0.0,0.0,93,0.00,,,0.00,weatherlink.com 1.10,2013-10-11 06:26:00,
2013-10-11 00:41:00,18.8,17.0,29.90,WNW,297,0.0,0.0,94,0.00,,,0.00,weatherlink.com 1.10,2013-10-11 06:41:00,
2013-10-11 00:57:00,16.5,14.0,29.91,WNW,292,0.0,0.0,91,0.00,,,0.00,weatherlink.com 1.10,2013-10-11 06:57:00,
2013-10-11 01:12:00,16.4,15.0,29.92,NW,305,0.0,0.0,93,0.00,,,0.00,weatherlink.com 1.10,2013-10-11 07:12:00,
2013-10-11 01:27:00,15.5,14.0,29.93,NE,39,0.0,0.0,92,0.00,,,0.00,weatherlink.com 1.10,2013-10-11 07:27:00,
2013-10-11 01:42:00,17.1,16.0,29.94,WNW,297,0.0,0.0,94,0.00,,,0.00,weatherlink.com 1.10,2013-10-11 07:42:00,
2013-10-11 01:57:00,18.0,16.0,29.95,WNW,300,0.0,0.0,93,0.00,,,0.00,weatherlink.com 1.10,2013-10-11 07:57:00,
2013-10-11 02:12:00,18.7,17.0,29.95,West,272,0.0,0.0,93,0.00,,,0.00,weatherlink.com 1.10,2013-10-11 08:12:00,
2013-10-11 02:27:00,18.3,16.0,29.95,West,273,0.0,0.0,92,0.00,,,0.00,weatherlink.com 1.10,2013-10-11 08:27:00,
2013-10-11 02:42:00,18.5,17.0,29.97,WNW,287,0.0,0.0,93,0.00,,,0.00,weatherlink.com 1.10,2013-10-11 08:42:00,
2013-10-11 02:57:00,18.3,16.0,29.96,WNW,288,0.0,0.0,92,0.00,,,0.00,weatherlink.com 1.10,2013-10-11 08:57:00,
2013-10-11 03:12:00,17.4,16.0,29.97,North,1,0.0,0.0,92,0.00,,,0.00,weatherlink.com 1.10,2013-10-11 09:12:00,
2013-10-11 03:27:00,17.1,15.0,29.97,NW,322,0.0,0.0,92,0.00,,,0.00,weatherlink.com 1.10,2013-10-11 09:27:00,
2013-10-11 03:42:00,17.4,16.0,29.98,WSW,254,0.0,0.0,92,0.00,,,0.00,weatherlink.com 1.10,2013-10-11 09:42:00,
2013-10-11 03:57:00,16.3,14.0,29.98,East,83,0.0,0.0,92,0.00,,,0.00,weatherlink.com 1.10,2013-10-11 09:57:00,
2013-10-11 04:12:00,14.6,13.0,29.99,SW,218,0.0,0.0,92,0.00,,,0.00,weatherlink.com 1.10,2013-10-11 10:12:00,
2013-10-11 04:27:00,14.6,13.0,30.00,SW,218,0.0,0.0,92,0.00,,,0.00,weatherlink.com 1.10,2013-10-11 10:27:00,
2013-10-11 04:42:00,14.9,13.0,30.00,NNE,33,0.0,0.0,92,0.00,,,0.00,weatherlink.com 1.10,2013-10-11 10:42:00,
2013-10-11 04:57:00,14.3,12.0,30.01,NNE,20,0.0,0.0,90,0.00,,,0.00,weatherlink.com 1.10,2013-10-11 10:57:00,
2013-10-11 05:12:00,13.8,12.0,30.02,North,9,0.0,0.0,92,0.00,,,0.00,weatherlink.com 1.10,2013-10-11 11:12:00,
2013-10-11 05:27:00,13.6,11.0,30.04,WNW,288,0.0,0.0,90,0.00,,,0.00,weatherlink.com 1.10,2013-10-11 11:27:00,
2013-10-11 05:42:00,13.9,12.0,30.04,NNW,340,0.0,0.0,92,0.00,,,0.00,weatherlink.com 1.10,2013-10-11 11:42:00,
2013-10-11 05:57:00,13.6,11.0,30.05,North,356,0.0,0.0,90,0.00,,,0.00,weatherlink.com 1.10,2013-10-11 11:57:00,
2013-10-11 06:12:00,13.7,12.0,30.07,NNW,346,0.0,0.0,92,0.00,,,0.00,weatherlink.com 1.10,2013-10-11 12:12:00,
2013-10-11 06:27:00,13.8,12.0,30.07,West,278,0.0,0.0,91,0.00,,,0.00,weatherlink.com 1.10,2013-10-11 12:27:00,
2013-10-11 06:42:00,11.3,9.0,30.08,ENE,70,0.0,0.0,89,0.00,,,0.00,weatherlink.com 1.10,2013-10-11 12:42:00,
2013-10-11 06:57:00,13.1,12.0,30.08,NNW,340,0.0,0.0,93,0.00,,,0.00,weatherlink.com 1.10,2013-10-11 12:57:00,
2013-10-11 07:12:00,13.0,11.0,30.11,NNW,340,0.0,0.0,91,0.00,,,0.00,weatherlink.com 1.10,2013-10-11 13:12:00,
2013-10-11 07:27:00,13.8,12.0,30.12,WNW,296,0.0,0.0,92,0.00,,,0.00,weatherlink.com 1.10,2013-10-11 13:27:00,
2013-10-11 07:42:00,14.3,13.0,30.12,NNE,23,0.0,0.0,93,0.00,,,0.00,weatherlink.com 1.10,2013-10-11 13:42:00,
2013-10-11 07:58:00,14.1,12.0,30.13,WNW,302,0.0,0.0,89,0.00,,,0.00,weatherlink.com 1.10,2013-10-11 13:58:00,
2013-10-11 08:28:00,16.9,15.0,30.16,West,263,0.0,0.0,91,0.00,,,0.00,weatherlink.com 1.10,2013-10-11 14:28:00,
2013-10-11 08:43:00,19.4,18.0,30.16,WNW,296,0.0,0.0,93,0.00,,,0.00,weatherlink.com 1.10,2013-10-11 14:43:00,
2013-10-11 08:58:00,19.4,17.0,30.16,ENE,61,0.0,0.0,89,0.00,,,0.00,weatherlink.com 1.10,2013-10-11 14:58:00,
2013-10-11 09:13:00,20.2,18.0,30.17,NW,319,0.0,0.0,89,0.00,,,0.00,weatherlink.com 1.10,2013-10-11 15:13:00,
2013-10-11 09:28:00,21.6,19.0,30.18,WNW,285,0.0,0.0,88,0.00,,,0.00,weatherlink.com 1.10,2013-10-11 15:28:00,
2013-10-11 09:43:00,22.9,20.0,30.18,West,278,0.0,0.0,90,0.00,,,0.00,weatherlink.com 1.10,2013-10-11 15:43:00,
2013-10-11 09:58:00,25.1,22.0,30.18,WNW,287,0.0,0.0,88,0.00,,,0.00,weatherlink.com 1.10,2013-10-11 15:58:00,
2013-10-11 10:13:00,26.2,23.0,30.18,NW,307,0.0,0.0,87,0.00,,,0.00,weatherlink.com 1.10,2013-10-11 16:13:00,
2013-10-11 10:28:00,26.6,22.0,30.18,WNW,293,0.0,0.0,82,0.00,,,0.00,weatherlink.com 1.10,2013-10-11 16:28:00,
2013-10-11 10:43:00,29.3,25.0,30.18,WNW,291,0.0,0.0,84,0.00,,,0.00,weatherlink.com 1.10,2013-10-11 16:43:00,
2013-10-11 10:58:00,34.2,25.0,30.18,ENE,77,0.0,0.0,69,0.00,,,0.00,weatherlink.com 1.10,2013-10-11 16:58:00,
2013-10-11 11:14:00,32.9,25.0,30.18,ESE,115,0.0,0.0,74,0.02,,,0.02,weatherlink.com 1.10,2013-10-11 17:14:00,
2013-10-11 11:28:00,36.4,27.0,30.18,SSE,163,0.0,2.0,70,0.04,,,0.04,weatherlink.com 1.10,2013-10-11 17:28:00,
2013-10-11 11:43:00,34.2,25.0,30.18,North,349,0.0,0.0,69,0.04,,,0.04,weatherlink.com 1.10,2013-10-11 17:43:00,
2013-10-11 11:58:00,34.6,27.0,30.18,NNE,29,0.0,0.0,74,0.05,,,0.05,weatherlink.com 1.10,2013-10-11 17:58:00,
2013-10-11 12:13:00,36.3,27.0,30.18,North,352,0.0,0.0,70,0.04,,,0.06,weatherlink.com 1.10,2013-10-11 18:13:00,
2013-10-11 12:28:00,35.8,27.0,30.18,West,269,0.0,0.0,69,0.03,,,0.07,weatherlink.com 1.10,2013-10-11 18:28:00,
2013-10-11 12:43:00,38.9,28.0,30.18,West,270,0.0,0.0,66,0.04,,,0.08,weatherlink.com 1.10,2013-10-11 18:43:00,
2013-10-11 12:58:00,38.0,29.0,30.18,NW,322,0.0,0.0,69,0.06,,,0.11,weatherlink.com 1.10,2013-10-11 18:58:00,
2013-10-11 13:13:00,39.4,28.0,30.17,West,277,0.0,0.0,64,0.08,,,0.14,weatherlink.com 1.10,2013-10-11 19:13:00,
2013-10-11 13:28:00,42.8,30.0,30.16,West,281,0.0,0.0,60,0.09,,,0.16,weatherlink.com 1.10,2013-10-11 19:28:00,
2013-10-11 13:43:00,44.2,29.0,30.15,West,281,0.0,0.0,55,0.10,,,0.18,weatherlink.com 1.10,2013-10-11 19:43:00,
2013-10-11 13:58:00,44.0,30.0,30.15,NW,309,0.0,0.0,58,0.09,,,0.20,weatherlink.com 1.10,2013-10-11 19:58:00,
2013-10-11 14:13:00,41.9,30.0,30.15,NW,311,0.0,0.0,62,0.08,,,0.22,weatherlink.com 1.10,2013-10-11 20:13:00,
2013-10-11 14:29:00,40.4,30.0,30.16,West,278,0.0,0.0,67,0.07,,,0.23,weatherlink.com 1.10,2013-10-11 20:29:00,
2013-10-11 14:43:00,40.6,30.0,30.15,West,269,0.0,0.0,66,0.07,,,0.25,weatherlink.com 1.10,2013-10-11 20:43:00,
2013-10-11 14:59:00,43.6,32.0,30.16,South,184,0.0,0.0,64,0.06,,,0.26,weatherlink.com 1.10,2013-10-11 20:59:00,
2013-10-11 15:14:00,44.8,27.0,30.15,NNW,340,5.0,6.0,50,0.06,,,0.28,weatherlink.com 1.10,2013-10-11 21:14:00,
2013-10-11 15:29:00,44.4,28.0,30.15,NNE,25,2.0,6.0,52,0.07,,,0.30,weatherlink.com 1.10,2013-10-11 21:29:00,
2013-10-11 15:44:00,43.9,26.0,30.15,NNW,342,4.0,8.0,50,0.06,,,0.31,weatherlink.com 1.10,2013-10-11 21:44:00,
2013-10-11 15:59:00,44.2,27.0,30.15,NNW,330,5.0,8.0,51,0.06,,,0.32,weatherlink.com 1.10,2013-10-11 21:59:00,
2013-10-11 16:14:00,42.8,28.0,30.16,West,278,4.0,4.0,57,0.04,,,0.32,weatherlink.com 1.10,2013-10-11 22:14:00,
2013-10-11 16:29:00,42.6,26.0,30.15,NW,322,5.0,8.0,52,0.03,,,0.33,weatherlink.com 1.10,2013-10-11 22:29:00,
2013-10-11 16:44:00,41.9,27.0,30.16,NNW,330,5.0,5.0,55,0.02,,,0.33,weatherlink.com 1.10,2013-10-11 22:44:00,
2013-10-11 16:59:00,41.7,26.0,30.16,NW,324,2.0,7.0,55,0.01,,,0.33,weatherlink.com 1.10,2013-10-11 22:59:00,
2013-10-11 17:14:00,41.0,27.0,30.16,WNW,288,4.0,10.0,57,0.01,,,0.33,weatherlink.com 1.10,2013-10-11 23:14:00,
2013-10-11 17:29:00,40.9,27.0,30.16,NNW,342,5.0,7.0,57,0.01,,,0.34,weatherlink.com 1.10,2013-10-11 23:29:00,
2013-10-11 17:44:00,41.9,25.0,30.17,NNW,333,3.0,9.0,52,0.01,,,0.34,weatherlink.com 1.10,2013-10-11 23:44:00,
2013-10-11 17:59:00,42.4,26.0,30.18,NW,316,5.0,9.0,53,0.01,,,0.34,weatherlink.com 1.10,2013-10-11 23:59:00,
2013-10-11 18:14:00,40.6,25.0,30.18,WNW,297,9.0,12.0,55,0.01,,,0.34,weatherlink.com 1.10,2013-10-12 00:14:00,
2013-10-11 18:29:00,39.5,26.0,30.18,NNW,337,5.0,7.0,60,0.00,,,0.34,weatherlink.com 1.10,2013-10-12 00:29:00,
2013-10-11 18:44:00,38.7,26.0,30.19,NW,324,5.0,9.0,60,0.00,,,0.34,weatherlink.com 1.10,2013-10-12 00:44:00,
2013-10-11 18:59:00,38.2,24.0,30.19,NNW,336,4.0,11.0,58,0.00,,,0.34,weatherlink.com 1.10,2013-10-12 00:59:00,
2013-10-11 19:14:00,37.6,25.0,30.19,NNW,336,4.0,7.0,60,0.00,,,0.34,weatherlink.com 1.10,2013-10-12 01:14:00,
2013-10-11 19:29:00,36.7,26.0,30.20,NW,322,2.0,8.0,65,0.00,,,0.34,weatherlink.com 1.10,2013-10-12 01:29:00,
2013-10-11 19:44:00,35.8,26.0,30.21,NNW,340,3.0,8.0,68,0.00,,,0.34,weatherlink.com 1.10,2013-10-12 01:44:00,
2013-10-11 19:59:00,35.5,27.0,30.21,NNW,342,4.0,6.0,72,0.00,,,0.34,weatherlink.com 1.10,2013-10-12 01:59:00,
2013-10-11 20:14:00,35.1,27.0,30.22,NNW,335,2.0,6.0,73,0.00,,,0.34,weatherlink.com 1.10,2013-10-12 02:14:00,
2013-10-11 20:29:00,34.4,27.0,30.22,NNW,346,3.0,5.0,75,0.00,,,0.34,weatherlink.com 1.10,2013-10-12 02:29:00,
2013-10-11 20:44:00,34.2,27.0,30.23,NW,319,3.0,7.0,76,0.00,,,0.34,weatherlink.com 1.10,2013-10-12 02:44:00,
2013-10-11 20:59:00,33.3,27.0,30.23,NNW,333,6.0,9.0,77,0.00,,,0.34,weatherlink.com 1.10,2013-10-12 02:59:00,
2013-10-11 21:14:00,32.7,26.0,30.24,NNW,345,4.0,8.0,77,0.00,,,0.34,weatherlink.com 1.10,2013-10-12 03:14:00,
2013-10-11 21:29:00,31.7,26.0,30.25,NW,318,6.0,8.0,78,0.00,,,0.34,weatherlink.com 1.10,2013-10-12 03:29:00,
2013-10-11 21:44:00,31.2,25.0,30.26,West,279,0.0,7.0,78,0.00,,,0.34,weatherlink.com 1.10,2013-10-12 03:44:00,
2013-10-11 22:00:00,30.6,24.0,30.26,NNE,15,4.0,7.0,77,0.00,,,0.34,weatherlink.com 1.10,2013-10-12 04:00:00,
2013-10-11 22:14:00,29.6,24.0,30.26,NW,308,5.0,9.0,80,0.00,,,0.34,weatherlink.com 1.10,2013-10-12 04:14:00,
2013-10-11 22:29:00,28.4,23.0,30.26,WNW,288,3.0,5.0,81,0.00,,,0.34,weatherlink.com 1.10,2013-10-12 04:29:00,
2013-10-11 22:44:00,28.3,23.0,30.26,WNW,297,1.0,5.0,81,0.00,,,0.34,weatherlink.com 1.10,2013-10-12 04:44:00,
2013-10-11 22:59:00,28.1,23.0,30.27,NE,36,2.0,4.0,80,0.00,,,0.34,weatherlink.com 1.10,2013-10-12 04:59:00,
2013-10-11 23:14:00,27.6,23.0,30.27,West,281,2.0,5.0,81,0.00,,,0.34,weatherlink.com 1.10,2013-10-12 05:14:00,
2013-10-11 23:29:00,27.2,22.0,30.27,NNW,328,2.0,7.0,82,0.00,,,0.34,weatherlink.com 1.10,2013-10-12 05:29:00,
2013-10-11 23:44:00,27.3,22.0,30.27,NNW,330,5.0,7.0,81,0.00,,,0.34,weatherlink.com 1.10,2013-10-12 05:44:00,
2013-10-11 23:59:00,26.2,21.0,30.27,WNW,291,2.0,8.0,82,0.00,,,0.34,weatherlink.com 1.10,2013-10-12 05:59:00,